Palo Pinto, Texas
Current Conditions -  °F | °C
As of 1:53 PM on Sunday 21 Dec 2014 (Local Time) from KMWL Reporting Station
Overcast Overcast  
Wind Chill: 51°   Ceiling: 1800
Heat Index: 51°   Visibility: 9mi
Dew Point: 45°   Wind: 12mph
Humidity: 80%   Direction: 170°S
Pressure: 29.86"   Gusts: NA
Location:  32.77°N, 98.3°W
Report Text: KMWL 211953Z AUTO 17010KT 9SM OVC018 11/07 A2986 RMK AO2 SLP109 T01060072
Loading
Personal Weather Stations






























Interactive Weather Map New forecast layout! Learn more

10-Day Weather Forecast

Advertisements
Track Severe Weather on mobile